Terminal Aerodrome Forecast
Issued by NWS

Home | Current Version | Previous Version | Text Only | Print | Product List | Glossary On
Versions: 1 2 3 4 5 6 7 8 9 10 11 12 13 14 15 16 17 18 19 20 21
000
FTPQ31 PGUM 230500
TAFPQ
TAF

PGWT 230536Z 2306/2406 08008KT P6SM VCSH FEW020 SCT060
     FM231200 11006KT P6SM VCSH SCT016 BKN035 BKN100
     FM232000 09008KT P6SM VCSH SCT018 SCT040=

USA.gov is the U.S. government's official web portal to all federal, state and local government web resources and services.